Time;durP1;ratioP1;P1;durP2;ratioP2;P2;SDS_P1;SDS_P2;PMS_P1;PMS_P2;Temp;Humidity;BMP_temperature;BMP_pressure;BME280_temperature;BME280_humidity;BME280_pressure;Samples;Min_cycle;Max_cycle;Signal;HPM_P1;HPM_P2
2023/01/15 00:00:35;;;;;;;;;;;6.40;99.90;;;;;;5020859;28;19920;-71
2023/01/15 00:03:01;;;;;;;;;;;6.40;99.90;;;;;;5037618;28;19921;-70
2023/01/15 00:05:26;;;;;;;;;;;6.40;99.90;;;;;;5055101;28;19935;-70
2023/01/15 00:07:52;;;;;;;;;;;6.40;99.90;;;;;;5054873;28;19917;-70
2023/01/15 00:10:18;;;;;;;;;;;6.40;99.90;;;;;;5054277;28;20358;-70
2023/01/15 00:12:44;;;;;;;;;;;6.40;99.90;;;;;;5036972;28;19920;-70
2023/01/15 00:15:09;;;;;;;;;;;6.40;99.90;;;;;;5037655;28;20007;-70
2023/01/15 00:17:35;;;;;;;;;;;6.40;99.90;;;;;;5037009;28;20029;-71
2023/01/15 00:20:00;;;;;;;;;;;6.40;99.90;;;;;;5021012;28;19920;-70
2023/01/15 00:22:27;;;;;;;;;;;6.40;99.90;;;;;;5053444;28;19943;-71
2023/01/15 00:27:37;;;;;;;;;;;6.40;99.90;;;;;;5053562;28;19924;-70
2023/01/15 00:30:03;;;;;;;;;;;6.40;99.90;;;;;;5053737;28;19958;-69
2023/01/15 00:32:29;;;;;;;;;;;6.40;99.90;;;;;;5053544;28;20277;-69
2023/01/15 00:34:55;;;;;;;;;;;6.40;99.90;;;;;;5053351;28;19928;-70
2023/01/15 00:37:20;;;;;;;;;;;6.40;99.90;;;;;;5037191;28;20270;-70
2023/01/15 00:39:46;;;;;;;;;;;6.40;99.90;;;;;;5036573;28;19928;-70
2023/01/15 00:42:12;;;;;;;;;;;6.40;99.90;;;;;;5037037;28;20030;-70
2023/01/15 00:44:37;;;;;;;;;;;6.40;99.90;;;;;;5053429;28;19928;-73
2023/01/15 00:47:03;;;;;;;;;;;6.40;99.90;;;;;;5054135;28;19935;-69
2023/01/15 00:49:28;;;;;;;;;;;6.30;99.90;;;;;;5053288;28;19921;-70
2023/01/15 00:51:54;;;;;;;;;;;6.40;99.90;;;;;;5036253;28;19928;-70
2023/01/15 00:54:20;;;;;;;;;;;6.40;99.90;;;;;;5054441;28;20576;-70
2023/01/15 00:56:45;;;;;;;;;;;6.40;99.90;;;;;;5036365;28;20294;-70
2023/01/15 00:59:11;;;;;;;;;;;6.40;99.90;;;;;;5052793;28;19967;-70
2023/01/15 01:01:37;;;;;;;;;;;6.30;99.90;;;;;;5036357;28;20400;-71
2023/01/15 01:04:03;;;;;;;;;;;6.40;99.90;;;;;;5036330;28;19920;-71
2023/01/15 01:06:28;;;;;;;;;;;6.30;99.90;;;;;;5052360;28;20453;-70
2023/01/15 01:08:54;;;;;;;;;;;6.30;99.90;;;;;;5051200;28;19924;-70
2023/01/15 01:11:22;;;;;;;;;;;6.30;99.90;;;;;;5052611;28;20366;-70
2023/01/15 01:13:48;;;;;;;;;;;6.40;99.90;;;;;;5052130;28;19927;-70
2023/01/15 01:16:23;;;;;;;;;;;6.30;99.90;;;;;;5052949;28;19920;-70
2023/01/15 01:18:48;;;;;;;;;;;6.30;99.90;;;;;;5052403;28;19921;-70
2023/01/15 01:21:14;;;;;;;;;;;6.30;99.90;;;;;;5052847;28;19927;-70
2023/01/15 01:23:40;;;;;;;;;;;6.30;99.90;;;;;;5052808;28;19927;-70
2023/01/15 01:26:05;;;;;;;;;;;6.30;99.90;;;;;;5035833;28;20421;-70
2023/01/15 01:28:31;;;;;;;;;;;6.30;99.90;;;;;;5036160;28;19920;-70
2023/01/15 01:30:56;;;;;;;;;;;6.30;99.90;;;;;;5052097;28;19927;-70
2023/01/15 01:33:22;;;;;;;;;;;6.30;99.90;;;;;;5052425;28;19921;-70
2023/01/15 01:35:48;;;;;;;;;;;6.30;99.90;;;;;;5052209;28;19921;-71
2023/01/15 01:38:14;;;;;;;;;;;6.30;99.90;;;;;;5035424;28;19967;-70
2023/01/15 01:40:40;;;;;;;;;;;6.30;99.90;;;;;;5052244;28;20332;-70
2023/01/15 01:43:17;;;;;;;;;;;6.30;99.90;;;;;;5035731;28;19921;-70
2023/01/15 01:45:43;;;;;;;;;;;6.20;99.90;;;;;;5035932;28;19968;-72
2023/01/15 01:48:09;;;;;;;;;;;6.20;99.90;;;;;;5052161;28;19964;-70
2023/01/15 01:50:36;;;;;;;;;;;6.20;99.90;;;;;;5035471;28;19920;-74
2023/01/15 01:53:07;;;;;;;;;;;6.20;99.90;;;;;;5052267;28;19966;-71
2023/01/15 01:55:33;;;;;;;;;;;6.20;99.90;;;;;;5052231;28;19971;-70
2023/01/15 01:58:01;;;;;;;;;;;6.20;99.90;;;;;;5035230;28;19963;-71
2023/01/15 02:00:28;;;;;;;;;;;6.20;99.90;;;;;;5052095;28;19974;-70
2023/01/15 02:02:53;;;;;;;;;;;6.20;99.90;;;;;;5051411;28;20028;-70
2023/01/15 02:05:26;;;;;;;;;;;6.20;99.90;;;;;;5035488;28;19980;-70
2023/01/15 02:07:52;;;;;;;;;;;6.20;99.90;;;;;;5051382;28;19921;-70
2023/01/15 02:10:17;;;;;;;;;;;6.20;99.90;;;;;;5052747;28;19928;-70
2023/01/15 02:12:49;;;;;;;;;;;6.20;99.90;;;;;;5051463;28;19972;-70
2023/01/15 02:15:17;;;;;;;;;;;6.20;99.90;;;;;;5052019;28;19927;-70
2023/01/15 02:17:43;;;;;;;;;;;6.20;99.90;;;;;;5051791;28;20290;-72
2023/01/15 02:20:27;;;;;;;;;;;6.20;99.90;;;;;;5050985;28;19920;-72
2023/01/15 02:23:08;;;;;;;;;;;6.20;99.90;;;;;;5050946;28;19929;-70
2023/01/15 02:25:53;;;;;;;;;;;6.20;99.90;;;;;;5034776;28;19981;-70
2023/01/15 02:28:25;;;;;;;;;;;6.20;99.90;;;;;;5034676;28;19920;-71
2023/01/15 02:31:01;;;;;;;;;;;6.10;99.90;;;;;;5034710;28;19921;-74
2023/01/15 02:33:34;;;;;;;;;;;6.10;99.90;;;;;;5051230;28;20281;-72
2023/01/15 02:36:00;;;;;;;;;;;6.10;99.90;;;;;;5034272;28;19924;-70
2023/01/15 02:38:28;;;;;;;;;;;6.10;99.90;;;;;;5034764;28;20049;-70
2023/01/15 02:40:55;;;;;;;;;;;6.10;99.90;;;;;;5051102;28;19920;-71
2023/01/15 02:43:22;;;;;;;;;;;6.10;99.90;;;;;;5051239;28;19921;-70
2023/01/15 02:45:49;;;;;;;;;;;6.10;99.90;;;;;;5034326;28;19963;-70
2023/01/15 02:48:16;;;;;;;;;;;6.10;99.90;;;;;;5034046;28;19921;-70
2023/01/15 02:50:54;;;;;;;;;;;6.20;99.90;;;;;;5051274;28;20239;-70
2023/01/15 02:53:29;;;;;;;;;;;6.10;99.90;;;;;;5033669;28;19924;-71
2023/01/15 02:56:00;;;;;;;;;;;6.10;99.90;;;;;;5051904;28;19927;-74
2023/01/15 02:58:28;;;;;;;;;;;6.10;99.90;;;;;;5051192;28;19974;-70
2023/01/15 03:00:55;;;;;;;;;;;6.10;99.90;;;;;;5034217;28;19975;-74
2023/01/15 03:03:35;;;;;;;;;;;6.10;99.90;;;;;;5034358;28;19927;-70
2023/01/15 03:06:12;;;;;;;;;;;6.10;99.90;;;;;;5050864;28;20329;-72
2023/01/15 03:08:39;;;;;;;;;;;6.10;99.90;;;;;;5050331;28;20477;-70
2023/01/15 03:11:12;;;;;;;;;;;6.10;99.90;;;;;;5033413;28;19921;-70
2023/01/15 03:13:57;;;;;;;;;;;6.10;99.90;;;;;;5034042;28;19920;-70
2023/01/15 03:16:38;;;;;;;;;;;6.10;99.90;;;;;;5051034;28;19921;-70
2023/01/15 03:19:22;;;;;;;;;;;6.10;99.90;;;;;;5050502;28;19927;-71
2023/01/15 03:21:48;;;;;;;;;;;6.10;99.90;;;;;;5034287;28;20157;-70
2023/01/15 03:24:16;;;;;;;;;;;6.10;99.90;;;;;;5050375;28;19928;-74
2023/01/15 03:26:42;;;;;;;;;;;6.10;99.90;;;;;;5052005;28;20281;-69
2023/01/15 03:29:08;;;;;;;;;;;6.10;99.90;;;;;;5050441;28;19922;-70
2023/01/15 03:31:34;;;;;;;;;;;6.10;99.90;;;;;;5050799;28;19921;-71
2023/01/15 03:34:00;;;;;;;;;;;6.10;99.90;;;;;;5036647;28;20297;-72
2023/01/15 03:36:26;;;;;;;;;;;6.10;99.90;;;;;;5021583;28;19921;-70
2023/01/15 03:38:52;;;;;;;;;;;6.10;99.90;;;;;;5054773;28;19971;-70
2023/01/15 03:41:26;;;;;;;;;;;6.10;99.90;;;;;;5054317;28;19960;-70
2023/01/15 03:44:07;;;;;;;;;;;6.10;99.90;;;;;;5054706;28;19921;-71
2023/01/15 03:46:41;;;;;;;;;;;6.10;99.90;;;;;;5037898;28;19921;-71
2023/01/15 03:49:18;;;;;;;;;;;6.00;99.90;;;;;;5037056;28;20454;-71
2023/01/15 03:52:03;;;;;;;;;;;6.10;99.90;;;;;;5054326;28;19920;-71
2023/01/15 03:54:35;;;;;;;;;;;6.00;99.90;;;;;;5054356;28;20406;-70
2023/01/15 03:57:07;;;;;;;;;;;6.10;99.90;;;;;;5053672;28;20359;-74
2023/01/15 03:59:36;;;;;;;;;;;6.10;99.90;;;;;;5053889;28;19976;-71
2023/01/15 04:02:04;;;;;;;;;;;6.10;99.90;;;;;;5053890;28;19931;-74
2023/01/15 04:04:30;;;;;;;;;;;6.10;99.90;;;;;;5054276;28;19924;-70
2023/01/15 04:06:57;;;;;;;;;;;6.00;99.90;;;;;;5054135;28;19982;-70
2023/01/15 04:09:22;;;;;;;;;;;6.00;99.90;;;;;;5036552;28;19920;-71
2023/01/15 04:11:48;;;;;;;;;;;6.00;99.90;;;;;;5054032;28;19974;-70
2023/01/15 04:14:14;;;;;;;;;;;6.00;99.90;;;;;;5052888;28;19965;-70
2023/01/15 04:16:39;;;;;;;;;;;6.00;99.90;;;;;;5037378;28;19936;-70
2023/01/15 04:19:05;;;;;;;;;;;6.00;99.90;;;;;;5037223;28;19921;-74
2023/01/15 04:21:31;;;;;;;;;;;6.00;99.90;;;;;;5053875;28;19943;-70
2023/01/15 04:23:56;;;;;;;;;;;6.00;99.90;;;;;;5054971;28;19921;-70
2023/01/15 04:26:22;;;;;;;;;;;6.00;99.90;;;;;;5036790;28;19928;-70
2023/01/15 04:28:48;;;;;;;;;;;6.00;99.90;;;;;;5053759;28;20019;-69
2023/01/15 04:31:13;;;;;;;;;;;5.90;99.90;;;;;;5053185;28;19927;-70
2023/01/15 04:33:39;;;;;;;;;;;5.90;99.90;;;;;;5053508;28;19924;-70
2023/01/15 04:36:05;;;;;;;;;;;5.90;99.90;;;;;;5037114;28;20263;-69
2023/01/15 04:38:31;;;;;;;;;;;5.90;99.90;;;;;;5053115;28;19963;-69
2023/01/15 04:46:29;;;;;;;;;;;5.80;99.90;;;;;;5053046;28;20579;-69
2023/01/15 04:48:55;;;;;;;;;;;5.80;99.90;;;;;;5054350;28;19921;-69
2023/01/15 04:51:20;;;;;;;;;;;5.80;99.90;;;;;;5052717;28;20015;-69
2023/01/15 04:53:46;;;;;;;;;;;5.90;99.90;;;;;;5052992;28;19928;-69
2023/01/15 04:56:11;;;;;;;;;;;5.80;99.90;;;;;;5052373;28;20026;-70
2023/01/15 04:58:37;;;;;;;;;;;5.80;99.90;;;;;;5036654;28;19925;-70
2023/01/15 05:01:08;;;;;;;;;;;5.80;99.90;;;;;;5053407;28;20314;-69
2023/01/15 05:03:34;;;;;;;;;;;5.80;99.90;;;;;;5052930;28;20008;-70
2023/01/15 05:06:00;;;;;;;;;;;5.80;99.90;;;;;;5054064;28;20021;-69
2023/01/15 05:08:26;;;;;;;;;;;5.80;99.90;;;;;;5053362;28;19927;-70
2023/01/15 05:10:51;;;;;;;;;;;5.70;99.90;;;;;;5053098;28;19921;-69
2023/01/15 05:13:17;;;;;;;;;;;5.60;99.90;;;;;;5052544;28;19921;-69
2023/01/15 05:15:45;;;;;;;;;;;5.70;99.90;;;;;;5053170;28;20404;-69
2023/01/15 05:18:13;;;;;;;;;;;5.70;99.90;;;;;;5053755;28;19971;-69
2023/01/15 05:20:42;;;;;;;;;;;5.60;99.90;;;;;;5036529;28;19924;-69
2023/01/15 05:23:07;;;;;;;;;;;5.60;99.90;;;;;;5053974;28;19943;-69
2023/01/15 05:25:36;;;;;;;;;;;5.60;99.90;;;;;;5035885;28;19920;-70
2023/01/15 05:28:02;;;;;;;;;;;5.60;99.90;;;;;;5052583;28;19921;-70
2023/01/15 05:30:28;;;;;;;;;;;5.60;99.90;;;;;;5035637;28;19925;-69
2023/01/15 05:32:53;;;;;;;;;;;5.60;99.90;;;;;;5035937;28;19927;-69
2023/01/15 05:35:19;;;;;;;;;;;5.60;99.90;;;;;;5052347;28;19924;-69
2023/01/15 05:37:44;;;;;;;;;;;5.60;99.90;;;;;;5036070;28;19963;-70
2023/01/15 05:40:10;;;;;;;;;;;5.50;99.90;;;;;;5052189;28;19921;-70
2023/01/15 05:42:36;;;;;;;;;;;5.50;99.90;;;;;;5035646;28;20570;-70
2023/01/15 05:45:02;;;;;;;;;;;5.50;99.90;;;;;;5035751;28;19974;-70
2023/01/15 05:47:27;;;;;;;;;;;5.50;99.90;;;;;;5051744;28;20317;-69
2023/01/15 05:49:53;;;;;;;;;;;5.50;99.90;;;;;;5019148;28;20301;-71
2023/01/15 05:52:18;;;;;;;;;;;5.50;99.90;;;;;;5035048;28;19925;-72
2023/01/15 05:54:44;;;;;;;;;;;5.50;99.90;;;;;;5018651;28;19920;-69
2023/01/15 05:57:11;;;;;;;;;;;5.40;99.90;;;;;;5035146;28;19928;-69
2023/01/15 05:59:37;;;;;;;;;;;5.40;99.90;;;;;;5035029;28;20011;-69
2023/01/15 06:02:03;;;;;;;;;;;5.40;99.90;;;;;;5019051;28;19972;-69
2023/01/15 06:04:29;;;;;;;;;;;5.40;99.90;;;;;;5051621;28;19925;-71
2023/01/15 06:06:55;;;;;;;;;;;5.40;99.90;;;;;;5035292;28;19921;-69
2023/01/15 06:09:21;;;;;;;;;;;5.40;99.90;;;;;;5051088;28;19920;-74
2023/01/15 06:11:47;;;;;;;;;;;5.30;99.90;;;;;;5051852;28;20290;-70
2023/01/15 06:14:13;;;;;;;;;;;5.30;99.90;;;;;;5034915;28;20011;-69
2023/01/15 06:16:39;;;;;;;;;;;5.20;99.90;;;;;;5051336;28;19991;-70
2023/01/15 06:19:05;;;;;;;;;;;5.30;99.90;;;;;;5035280;28;20314;-69
2023/01/15 06:21:31;;;;;;;;;;;5.20;99.90;;;;;;5051376;28;19920;-70
2023/01/15 06:23:57;;;;;;;;;;;5.20;99.90;;;;;;5034952;28;19921;-70
2023/01/15 06:26:22;;;;;;;;;;;5.20;99.90;;;;;;5051387;28;20324;-74
2023/01/15 06:28:48;;;;;;;;;;;5.20;99.90;;;;;;5035022;28;19921;-70
2023/01/15 06:31:15;;;;;;;;;;;5.20;99.90;;;;;;5051591;28;19987;-70
2023/01/15 06:33:40;;;;;;;;;;;5.20;99.90;;;;;;5050700;28;19921;-70
2023/01/15 06:36:08;;;;;;;;;;;5.20;99.90;;;;;;5051668;28;20492;-69
2023/01/15 06:38:33;;;;;;;;;;;5.20;99.90;;;;;;5052139;28;20013;-70
2023/01/15 06:41:03;;;;;;;;;;;5.20;99.90;;;;;;5052375;28;19975;-70
2023/01/15 06:48:57;;;;;;;;;;;5.20;99.90;;;;;;5051173;28;19927;-69
2023/01/15 06:51:23;;;;;;;;;;;5.20;99.90;;;;;;5034579;28;20376;-70
2023/01/15 06:53:49;;;;;;;;;;;5.20;99.90;;;;;;5016968;28;20031;-71
2023/01/15 06:56:14;;;;;;;;;;;5.20;99.90;;;;;;5050907;28;19959;-72
2023/01/15 06:58:40;;;;;;;;;;;5.20;99.90;;;;;;5050647;28;19940;-71
2023/01/15 07:01:09;;;;;;;;;;;5.20;99.90;;;;;;5051154;28;20011;-70
2023/01/15 07:03:35;;;;;;;;;;;5.20;99.90;;;;;;5050781;28;19928;-70
2023/01/15 07:06:05;;;;;;;;;;;5.20;99.90;;;;;;5050900;28;19921;-71
2023/01/15 07:08:31;;;;;;;;;;;5.10;99.90;;;;;;5049936;28;19975;-70
2023/01/15 07:11:00;;;;;;;;;;;5.10;99.90;;;;;;5051019;28;19972;-70
2023/01/15 07:13:26;;;;;;;;;;;5.10;99.90;;;;;;5033979;28;19928;-70
2023/01/15 07:15:51;;;;;;;;;;;5.10;99.90;;;;;;5033902;28;19921;-70
2023/01/15 07:18:17;;;;;;;;;;;5.20;99.90;;;;;;5050857;28;19927;-70
2023/01/15 07:20:42;;;;;;;;;;;5.20;99.90;;;;;;5050374;28;19932;-70
2023/01/15 07:23:08;;;;;;;;;;;5.20;99.90;;;;;;5034126;28;19921;-70
2023/01/15 07:25:34;;;;;;;;;;;5.20;99.90;;;;;;5033754;28;19920;-70
2023/01/15 07:27:59;;;;;;;;;;;5.10;99.90;;;;;;5049752;28;19931;-71
2023/01/15 07:30:25;;;;;;;;;;;5.10;99.90;;;;;;5034105;28;19954;-70
2023/01/15 07:32:50;;;;;;;;;;;5.10;99.90;;;;;;5033545;28;20517;-70
2023/01/15 07:35:16;;;;;;;;;;;5.20;99.90;;;;;;5050553;28;19921;-70
2023/01/15 07:37:42;;;;;;;;;;;5.20;99.90;;;;;;5033678;28;20330;-70
2023/01/15 07:40:08;;;;;;;;;;;5.20;99.90;;;;;;5034055;28;20015;-70
2023/01/15 07:51:02;;;;;;;;;;;5.20;99.90;;;;;;5014859;28;20362;-70
2023/01/15 07:53:31;;;;;;;;;;;5.20;99.90;;;;;;5050209;28;19921;-70
2023/01/15 07:55:56;;;;;;;;;;;5.10;99.90;;;;;;5049982;28;19942;-70
2023/01/15 07:58:22;;;;;;;;;;;5.20;99.90;;;;;;5016908;28;19920;-71
2023/01/15 08:00:47;;;;;;;;;;;5.20;99.90;;;;;;5049844;28;20412;-70
2023/01/15 08:03:13;;;;;;;;;;;5.20;99.90;;;;;;5050396;28;19986;-71
2023/01/15 08:05:39;;;;;;;;;;;5.20;99.90;;;;;;5033398;28;19925;-70
2023/01/15 08:08:04;;;;;;;;;;;5.20;99.90;;;;;;5050093;28;20286;-70
2023/01/15 08:10:30;;;;;;;;;;;5.20;99.90;;;;;;5033708;28;19947;-70
2023/01/15 08:15:42;;;;;;;;;;;5.30;99.90;;;;;;5050064;28;20313;-71
2023/01/15 08:18:08;;;;;;;;;;;5.30;99.90;;;;;;5050258;28;19920;-70
2023/01/15 08:20:34;;;;;;;;;;;5.40;99.90;;;;;;5037432;28;20263;-71
2023/01/15 08:23:00;;;;;;;;;;;5.40;99.90;;;;;;5036872;28;20381;-70
2023/01/15 08:25:25;;;;;;;;;;;5.40;99.90;;;;;;5037299;28;20355;-69
2023/01/15 08:27:51;;;;;;;;;;;5.50;99.90;;;;;;5053469;28;19921;-70
2023/01/15 08:30:18;;;;;;;;;;;5.50;99.90;;;;;;5053774;28;19920;-71
2023/01/15 08:32:44;;;;;;;;;;;5.50;99.90;;;;;;5052726;28;19974;-70
2023/01/15 08:35:11;;;;;;;;;;;5.50;99.90;;;;;;5036505;28;19975;-73
2023/01/15 08:37:37;;;;;;;;;;;5.50;99.90;;;;;;5020832;28;19921;-71
2023/01/15 08:40:03;;;;;;;;;;;5.50;99.90;;;;;;5036468;28;19970;-70
2023/01/15 08:42:28;;;;;;;;;;;5.40;99.90;;;;;;5036842;28;19924;-70
2023/01/15 08:44:54;;;;;;;;;;;5.40;99.90;;;;;;5053014;28;19978;-72
2023/01/15 08:47:20;;;;;;;;;;;5.40;99.90;;;;;;5036663;28;19944;-70
2023/01/15 08:49:46;;;;;;;;;;;5.50;99.90;;;;;;5053028;28;20094;-70
2023/01/15 08:52:12;;;;;;;;;;;5.50;99.90;;;;;;5053326;28;19927;-69
2023/01/15 08:54:38;;;;;;;;;;;5.50;99.90;;;;;;5019810;28;19921;-69
2023/01/15 08:57:04;;;;;;;;;;;5.50;99.90;;;;;;5053262;28;19978;-69
2023/01/15 08:59:29;;;;;;;;;;;5.50;99.90;;;;;;5036096;28;20011;-69
2023/01/15 09:01:55;;;;;;;;;;;5.50;99.90;;;;;;5051993;28;19944;-69
2023/01/15 09:04:21;;;;;;;;;;;5.50;99.90;;;;;;5036481;28;20063;-68
2023/01/15 09:06:47;;;;;;;;;;;5.40;99.90;;;;;;5036111;28;19925;-70
2023/01/15 09:09:13;;;;;;;;;;;5.30;99.90;;;;;;5035786;28;19920;-69
2023/01/15 09:11:39;;;;;;;;;;;5.10;99.90;;;;;;5036504;28;20448;-69
2023/01/15 09:14:06;;;;;;;;;;;5.00;99.90;;;;;;5052293;28;19917;-69
2023/01/15 09:16:32;;;;;;;;;;;5.00;99.90;;;;;;5053582;28;19966;-69
2023/01/15 09:18:57;;;;;;;;;;;5.00;99.90;;;;;;5035986;28;19924;-69
2023/01/15 09:21:23;;;;;;;;;;;5.00;99.90;;;;;;5036239;28;19920;-69
2023/01/15 09:23:48;;;;;;;;;;;5.00;99.90;;;;;;5019286;28;19924;-70
2023/01/15 09:26:34;;;;;;;;;;;4.90;99.90;;;;;;5052604;28;20003;-70
2023/01/15 09:29:00;;;;;;;;;;;5.00;99.90;;;;;;5034832;28;19921;-69
2023/01/15 09:31:27;;;;;;;;;;;5.10;99.90;;;;;;5051507;28;20015;-69
2023/01/15 09:33:52;;;;;;;;;;;5.10;99.90;;;;;;5051834;28;20392;-69
2023/01/15 09:36:21;;;;;;;;;;;5.10;99.90;;;;;;5052489;28;19920;-69
2023/01/15 09:38:48;;;;;;;;;;;5.10;99.90;;;;;;5051682;28;19920;-71
2023/01/15 09:44:07;;;;;;;;;;;5.30;99.90;;;;;;5051803;28;20423;-70
2023/01/15 09:46:42;;;;;;;;;;;5.30;99.90;;;;;;5052497;28;20317;-70
2023/01/15 09:49:20;;;;;;;;;;;5.40;99.90;;;;;;5051872;28;20016;-69
2023/01/15 09:51:47;;;;;;;;;;;5.40;99.90;;;;;;5052321;28;19972;-69
2023/01/15 09:54:13;;;;;;;;;;;5.40;99.90;;;;;;5051539;28;19921;-69
2023/01/15 09:56:38;;;;;;;;;;;5.50;99.90;;;;;;5052110;28;19931;-69
2023/01/15 09:59:09;;;;;;;;;;;5.60;99.90;;;;;;5035185;28;19920;-69
2023/01/15 10:01:36;;;;;;;;;;;5.70;99.90;;;;;;5035283;28;20370;-69
2023/01/15 10:04:15;;;;;;;;;;;5.80;99.90;;;;;;5051368;28;19928;-69
2023/01/15 10:06:45;;;;;;;;;;;5.90;99.90;;;;;;5053040;28;20349;-70
2023/01/15 10:09:13;;;;;;;;;;;6.10;99.90;;;;;;5051050;28;20434;-70
2023/01/15 10:14:37;;;;;;;;;;;6.20;99.90;;;;;;5051376;28;19920;-69
2023/01/15 10:17:06;;;;;;;;;;;6.40;99.90;;;;;;5051197;28;19921;-69
2023/01/15 10:19:32;;;;;;;;;;;6.40;99.90;;;;;;5051489;28;20334;-71
2023/01/15 10:22:04;;;;;;;;;;;6.40;99.90;;;;;;5051061;28;19982;-69
2023/01/15 10:24:36;;;;;;;;;;;6.40;99.90;;;;;;5051526;28;19970;-69
2023/01/15 10:27:05;;;;;;;;;;;6.40;99.90;;;;;;5034636;28;19924;-69
2023/01/15 10:29:45;;;;;;;;;;;6.50;99.90;;;;;;5051172;28;19921;-69
2023/01/15 10:32:23;;;;;;;;;;;6.40;99.90;;;;;;5050720;28;19929;-69
2023/01/15 10:35:21;;;;;;;;;;;6.50;99.90;;;;;;5034354;28;19927;-69
2023/01/15 10:37:56;;;;;;;;;;;6.60;99.90;;;;;;4991238;28;20297;-68
2023/01/15 10:40:40;;;;;;;;;;;6.70;99.90;;;;;;5050627;28;20130;-70
2023/01/15 10:43:10;;;;;;;;;;;6.80;99.90;;;;;;5033803;28;19921;-70
2023/01/15 10:45:39;;;;;;;;;;;7.00;99.90;;;;;;5048749;28;19928;-68
2023/01/15 10:48:05;;;;;;;;;;;7.10;99.90;;;;;;5050736;28;20277;-70
2023/01/15 10:50:31;;;;;;;;;;;7.10;99.90;;;;;;5050460;28;20067;-68
2023/01/15 10:53:01;;;;;;;;;;;7.10;99.90;;;;;;5050590;28;20284;-69
2023/01/15 10:55:31;;;;;;;;;;;7.10;99.90;;;;;;5034007;28;19925;-69
2023/01/15 10:57:58;;;;;;;;;;;7.10;99.90;;;;;;5051737;28;19986;-69
2023/01/15 11:00:24;;;;;;;;;;;7.10;99.90;;;;;;5050459;28;19928;-69
2023/01/15 11:02:55;;;;;;;;;;;7.00;99.90;;;;;;5051494;28;19921;-69
2023/01/15 11:05:20;;;;;;;;;;;7.00;99.90;;;;;;5050069;28;19965;-69
2023/01/15 11:07:47;;;;;;;;;;;7.10;99.90;;;;;;5050065;28;20373;-69
2023/01/15 11:10:14;;;;;;;;;;;7.10;99.90;;;;;;5049478;28;19921;-69
2023/01/15 11:21:11;;;;;;;;;;;7.20;99.90;;;;;;5049978;28;20346;-69
2023/01/15 11:23:36;;;;;;;;;;;7.30;99.90;;;;;;5050957;28;19928;-71
2023/01/15 11:26:02;;;;;;;;;;;7.30;99.90;;;;;;5033708;28;20266;-73
2023/01/15 11:28:38;;;;;;;;;;;7.30;99.90;;;;;;5017435;28;19921;-71
2023/01/15 11:31:05;;;;;;;;;;;7.30;99.90;;;;;;5047709;28;19944;-72
2023/01/15 11:33:31;;;;;;;;;;;7.30;99.90;;;;;;5047076;28;19920;-75
2023/01/15 11:35:58;;;;;;;;;;;7.30;99.90;;;;;;5049620;28;19928;-74
2023/01/15 11:38:42;;;;;;;;;;;7.30;99.90;;;;;;5049299;28;20507;-72
2023/01/15 11:52:32;;;;;;;;;;;7.20;99.90;;;;;;5049041;28;20378;-73
2023/01/15 11:55:01;;;;;;;;;;;7.20;99.90;;;;;;5036039;28;19964;-73
2023/01/15 11:57:29;;;;;;;;;;;7.20;99.90;;;;;;5053399;28;19926;-73
2023/01/15 11:59:55;;;;;;;;;;;7.10;99.90;;;;;;5054091;28;20340;-73
2023/01/15 12:02:53;;;;;;;;;;;7.10;99.90;;;;;;5053907;28;19939;-71
2023/01/15 12:05:20;;;;;;;;;;;7.00;99.90;;;;;;5053608;28;19928;-73
2023/01/15 12:07:47;;;;;;;;;;;6.90;99.90;;;;;;5037791;28;20503;-70
2023/01/15 12:10:16;;;;;;;;;;;6.80;99.90;;;;;;5036748;28;19947;-72
2023/01/15 12:12:44;;;;;;;;;;;6.80;99.90;;;;;;5037436;28;20022;-71
2023/01/15 12:15:14;;;;;;;;;;;6.70;99.90;;;;;;5053442;28;19924;-75
2023/01/15 12:18:10;;;;;;;;;;;6.70;99.90;;;;;;5037087;28;20005;-72
2023/01/15 12:21:07;;;;;;;;;;;6.70;99.90;;;;;;5036009;28;20382;-72
2023/01/15 12:23:33;;;;;;;;;;;6.70;99.90;;;;;;4993602;28;19973;-73
2023/01/15 12:26:17;;;;;;;;;;;6.70;99.90;;;;;;5037492;28;19928;-72
2023/01/15 12:29:12;;;;;;;;;;;6.50;99.90;;;;;;5055044;28;19928;-73
2023/01/15 12:31:40;;;;;;;;;;;6.20;99.90;;;;;;5025650;28;20502;-74
2023/01/15 12:34:13;;;;;;;;;;;5.90;99.90;;;;;;5035795;28;19972;-72
2023/01/15 12:37:02;;;;;;;;;;;5.60;99.90;;;;;;5053286;28;19920;-75
2023/01/15 12:39:27;;;;;;;;;;;;;;;;;;5025223;28;19920;-72
2023/01/15 12:45:04;;;;;;;;;;;5.10;99.90;;;;;;5053144;28;19921;-72
2023/01/15 12:47:36;;;;;;;;;;;5.20;99.90;;;;;;5036625;28;19921;-71
2023/01/15 12:50:05;;;;;;;;;;;5.20;99.90;;;;;;5053423;28;20305;-71
2023/01/15 12:52:37;;;;;;;;;;;5.20;99.90;;;;;;5036151;28;19936;-71
2023/01/15 12:55:06;;;;;;;;;;;5.30;99.90;;;;;;5053185;28;19921;-71
2023/01/15 12:57:39;;;;;;;;;;;5.30;99.90;;;;;;5035547;28;20015;-70
2023/01/15 13:00:18;;;;;;;;;;;5.30;99.90;;;;;;5053191;28;19920;-71
2023/01/15 13:03:04;;;;;;;;;;;5.40;99.90;;;;;;5053025;28;19931;-73
2023/01/15 13:05:32;;;;;;;;;;;5.40;99.90;;;;;;5052289;28;19921;-70
2023/01/15 13:08:37;;;;;;;;;;;5.40;99.90;;;;;;5036555;28;19971;-70
2023/01/15 13:11:02;;;;;;;;;;;5.40;99.90;;;;;;4975627;28;19922;-70
2023/01/15 13:13:36;;;;;;;;;;;5.40;99.90;;;;;;4975316;28;19921;-71
2023/01/15 13:16:15;;;;;;;;;;;5.50;99.90;;;;;;5013835;28;20018;-71
2023/01/15 13:18:59;;;;;;;;;;;5.50;99.90;;;;;;5036039;28;19920;-72
2023/01/15 13:21:26;;;;;;;;;;;5.50;99.90;;;;;;5052371;28;19921;-71
2023/01/15 13:24:09;;;;;;;;;;;5.50;99.90;;;;;;5052983;28;20268;-72
2023/01/15 13:26:37;;;;;;;;;;;5.50;99.90;;;;;;5052462;28;20392;-72
2023/01/15 13:29:10;;;;;;;;;;;5.50;99.90;;;;;;5052704;28;19927;-71
2023/01/15 13:31:42;;;;;;;;;;;5.50;99.90;;;;;;5052409;28;19921;-73
2023/01/15 13:34:27;;;;;;;;;;;5.50;99.90;;;;;;5052571;28;19920;-75
2023/01/15 13:36:56;;;;;;;;;;;5.50;99.90;;;;;;5012262;28;20015;-74
2023/01/15 13:39:23;;;;;;;;;;;5.50;99.90;;;;;;5035422;28;20376;-74
2023/01/15 13:44:37;;;;;;;;;;;5.50;99.90;;;;;;5051760;28;20071;-75
2023/01/15 13:47:04;;;;;;;;;;;5.50;99.90;;;;;;5035412;28;19974;-74
2023/01/15 13:49:33;;;;;;;;;;;5.50;99.90;;;;;;5035209;28;19920;-75
2023/01/15 13:52:03;;;;;;;;;;;5.50;99.90;;;;;;5051824;28;19939;-73
2023/01/15 13:54:29;;;;;;;;;;;5.40;99.90;;;;;;5035648;28;19928;-71
2023/01/15 13:57:06;;;;;;;;;;;5.30;99.90;;;;;;5051910;28;19921;-72
2023/01/15 13:59:41;;;;;;;;;;;5.20;99.90;;;;;;5051712;28;19947;-74
2023/01/15 14:02:22;;;;;;;;;;;5.20;99.90;;;;;;5051086;28;19964;-70
2023/01/15 14:04:48;;;;;;;;;;;5.10;99.90;;;;;;5035320;28;19940;-73
2023/01/15 14:07:17;;;;;;;;;;;5.10;99.90;;;;;;5035285;28;19920;-71
2023/01/15 14:09:43;;;;;;;;;;;5.00;99.90;;;;;;5034991;28;19916;-71
2023/01/15 14:12:18;;;;;;;;;;;5.10;99.90;;;;;;5051432;28;19932;-70
2023/01/15 14:14:49;;;;;;;;;;;5.10;99.90;;;;;;5051246;28;19932;-71
2023/01/15 14:17:21;;;;;;;;;;;5.10;99.90;;;;;;5034647;28;19920;-71
2023/01/15 14:19:53;;;;;;;;;;;5.10;99.90;;;;;;5034800;28;20270;-71
2023/01/15 14:22:46;;;;;;;10.70;2.03;;;5.20;99.90;;;;;;5034368;28;19960;-71
2023/01/15 14:25:43;;;;;;;10.05;1.85;;;5.20;99.90;;;;;;5051187;28;20545;-72
2023/01/15 14:28:34;;;;;;;11.93;2.78;;;5.30;99.90;;;;;;5050881;28;20045;-72
2023/01/15 14:31:27;;;;;;;8.45;2.00;;;5.30;99.90;;;;;;5034626;28;20383;-75
2023/01/15 14:34:09;;;;;;;7.75;2.38;;;5.40;99.90;;;;;;5034135;28;20052;-72
2023/01/15 14:36:44;;;;;;;11.25;2.95;;;5.40;99.90;;;;;;5033584;28;20045;-71
2023/01/15 14:39:25;;;;;;;12.30;2.72;;;5.50;99.90;;;;;;5050869;28;20099;-72
2023/01/15 14:45:07;;;;;;;13.82;2.38;;;5.60;99.90;;;;;;5050614;28;20098;-72
2023/01/15 14:47:45;;;;;;;13.63;2.95;;;5.60;99.90;;;;;;5032982;28;20499;-70
2023/01/15 14:50:41;;;;;;;15.95;2.70;;;5.70;99.90;;;;;;5050376;28;20048;-70
2023/01/15 14:53:13;;;;;;;15.00;3.00;;;;;;;;;;5032183;28;20041;-73
2023/01/15 14:55:45;;;;;;;14.43;2.67;;;;;;;;;;5048743;28;20145;-73
2023/01/15 14:58:17;;;;;;;10.93;3.20;;;;;;;;;;5050575;28;20045;-72
2023/01/15 15:00:45;;;;;;;9.82;2.30;;;;;;;;;;5049405;28;20048;-71
2023/01/15 15:03:20;;;;;;;14.25;2.88;;;;;;;;;;5029930;28;20095;-72
2023/01/15 15:05:47;;;;;;;14.95;3.55;;;;;;;;;;5045986;28;20098;-71
2023/01/15 15:08:14;;;;;;;13.85;2.80;;;;;;;;;;5047201;28;20045;-71
2023/01/15 15:10:42;;;;;;;16.88;3.70;;;;;;;;;;5049525;28;20060;-72
2023/01/15 15:13:14;;;;;;;11.90;2.85;;;;;;;;;;5047899;28;20049;-71
2023/01/15 15:15:48;;;;;;;14.65;3.45;;;5.70;99.90;;;;;;5032826;28;20088;-72
2023/01/15 15:18:19;;;;;;;16.35;3.05;;;5.80;99.90;;;;;;5049342;28;20075;-72
2023/01/15 15:21:03;;;;;;;12.25;3.10;;;5.80;99.90;;;;;;5049239;28;20049;-72
2023/01/15 15:23:54;;;;;;;11.35;2.55;;;5.80;99.90;;;;;;5049945;28;20167;-71
2023/01/15 15:26:23;;;;;;;14.80;2.97;;;5.70;99.90;;;;;;5050213;28;20052;-70
2023/01/15 15:29:02;;;;;;;12.43;2.88;;;5.80;99.90;;;;;;5034016;28;20052;-72
2023/01/15 15:31:33;;;;;;;14.18;3.08;;;5.70;99.90;;;;;;5054038;28;20552;-71
2023/01/15 15:33:58;;;;;;;11.60;3.30;;;5.70;99.90;;;;;;5037144;28;20246;-71
2023/01/15 15:36:28;;;;;;;11.20;2.63;;;5.70;99.90;;;;;;5019757;28;20141;-74